sensor_id;sensor_type;location;lat;lon;timestamp;pressure;altitude;pressure_sealevel;temperature;humidity
6393;BME280;3229;42.674;23.282;2023-07-08T00:01:35;94956.81;;;20.66;86.54
6393;BME280;3229;42.674;23.282;2023-07-08T00:04:02;94956.81;;;20.66;86.71
6393;BME280;3229;42.674;23.282;2023-07-08T00:06:31;94948.81;;;20.68;86.56
6393;BME280;3229;42.674;23.282;2023-07-08T00:08:58;94946.22;;;20.68;86.59
6393;BME280;3229;42.674;23.282;2023-07-08T00:11:25;94946.00;;;20.63;86.65
6393;BME280;3229;42.674;23.282;2023-07-08T00:13:53;94942.59;;;20.62;86.98
6393;BME280;3229;42.674;23.282;2023-07-08T00:16:19;94935.19;;;20.59;86.55
6393;BME280;3229;42.674;23.282;2023-07-08T00:18:47;94927.38;;;20.59;86.83
6393;BME280;3229;42.674;23.282;2023-07-08T00:21:16;94938.19;;;20.56;87.02
6393;BME280;3229;42.674;23.282;2023-07-08T00:23:45;94925.78;;;20.51;87.16
6393;BME280;3229;42.674;23.282;2023-07-08T00:26:17;94922.56;;;20.49;87.33
6393;BME280;3229;42.674;23.282;2023-07-08T00:28:45;94924.31;;;20.42;87.30
6393;BME280;3229;42.674;23.282;2023-07-08T00:31:11;94937.28;;;20.42;87.70
6393;BME280;3229;42.674;23.282;2023-07-08T00:33:39;94930.47;;;20.41;87.73
6393;BME280;3229;42.674;23.282;2023-07-08T00:36:10;94923.84;;;20.32;87.51
6393;BME280;3229;42.674;23.282;2023-07-08T00:38:38;94926.84;;;20.36;87.76
6393;BME280;3229;42.674;23.282;2023-07-08T00:41:13;94923.03;;;20.32;87.93
6393;BME280;3229;42.674;23.282;2023-07-08T00:43:44;94920.66;;;20.30;88.16
6393;BME280;3229;42.674;23.282;2023-07-08T00:46:31;94919.03;;;20.29;87.87
6393;BME280;3229;42.674;23.282;2023-07-08T00:49:13;94915.19;;;20.25;88.17
6393;BME280;3229;42.674;23.282;2023-07-08T00:51:42;94897.78;;;20.19;88.51
6393;BME280;3229;42.674;23.282;2023-07-08T00:54:11;94903.63;;;20.21;88.40
6393;BME280;3229;42.674;23.282;2023-07-08T00:56:42;94904.63;;;20.26;88.50
6393;BME280;3229;42.674;23.282;2023-07-08T00:59:13;94904.81;;;20.25;88.17
6393;BME280;3229;42.674;23.282;2023-07-08T01:01:43;94893.19;;;20.14;88.46
6393;BME280;3229;42.674;23.282;2023-07-08T01:04:14;94889.78;;;20.14;88.58
6393;BME280;3229;42.674;23.282;2023-07-08T01:06:46;94888.22;;;20.19;88.78
6393;BME280;3229;42.674;23.282;2023-07-08T01:09:14;94885.00;;;20.17;88.82
6393;BME280;3229;42.674;23.282;2023-07-08T01:11:43;94888.38;;;20.11;88.80
6393;BME280;3229;42.674;23.282;2023-07-08T01:14:12;94886.16;;;20.08;88.99
6393;BME280;3229;42.674;23.282;2023-07-08T01:16:41;94891.16;;;20.10;89.20
6393;BME280;3229;42.674;23.282;2023-07-08T01:19:14;94886.75;;;20.10;89.21
6393;BME280;3229;42.674;23.282;2023-07-08T01:21:46;94887.28;;;19.99;89.84
6393;BME280;3229;42.674;23.282;2023-07-08T01:24:14;94879.28;;;19.94;89.96
6393;BME280;3229;42.674;23.282;2023-07-08T01:26:43;94875.28;;;19.91;90.12
6393;BME280;3229;42.674;23.282;2023-07-08T01:29:11;94872.84;;;19.90;90.15
6393;BME280;3229;42.674;23.282;2023-07-08T01:31:38;94874.50;;;19.91;89.88
6393;BME280;3229;42.674;23.282;2023-07-08T01:34:07;94848.03;;;19.74;90.15
6393;BME280;3229;42.674;23.282;2023-07-08T01:36:39;94875.06;;;19.86;90.12
6393;BME280;3229;42.674;23.282;2023-07-08T01:39:12;94866.22;;;19.80;89.86
6393;BME280;3229;42.674;23.282;2023-07-08T01:41:40;94888.03;;;19.86;89.78
6393;BME280;3229;42.674;23.282;2023-07-08T01:44:20;94877.59;;;19.79;90.08
6393;BME280;3229;42.674;23.282;2023-07-08T01:46:47;94877.97;;;19.76;90.33
6393;BME280;3229;42.674;23.282;2023-07-08T01:49:14;94878.41;;;19.80;90.20
6393;BME280;3229;42.674;23.282;2023-07-08T01:51:42;94879.81;;;19.83;90.09
6393;BME280;3229;42.674;23.282;2023-07-08T01:54:09;94882.03;;;19.86;89.81
6393;BME280;3229;42.674;23.282;2023-07-08T01:56:37;94873.00;;;19.82;90.21
6393;BME280;3229;42.674;23.282;2023-07-08T01:59:04;94863.19;;;19.77;90.16
6393;BME280;3229;42.674;23.282;2023-07-08T02:01:30;94872.22;;;19.81;90.18
6393;BME280;3229;42.674;23.282;2023-07-08T02:03:57;94855.19;;;19.72;90.35
6393;BME280;3229;42.674;23.282;2023-07-08T02:06:24;94871.97;;;19.76;90.23
6393;BME280;3229;42.674;23.282;2023-07-08T02:08:51;94870.19;;;19.76;90.36
6393;BME280;3229;42.674;23.282;2023-07-08T02:11:18;94865.94;;;19.69;90.35
6393;BME280;3229;42.674;23.282;2023-07-08T02:13:46;94887.78;;;19.81;90.45
6393;BME280;3229;42.674;23.282;2023-07-08T02:16:13;94888.19;;;19.78;90.25
6393;BME280;3229;42.674;23.282;2023-07-08T02:18:39;94886.75;;;19.75;90.46
6393;BME280;3229;42.674;23.282;2023-07-08T02:21:06;94883.72;;;19.72;90.60
6393;BME280;3229;42.674;23.282;2023-07-08T02:23:34;94886.91;;;19.67;91.15
6393;BME280;3229;42.674;23.282;2023-07-08T02:26:01;94876.09;;;19.64;91.33
6393;BME280;3229;42.674;23.282;2023-07-08T02:28:27;94889.84;;;19.64;91.15
6393;BME280;3229;42.674;23.282;2023-07-08T02:30:56;94889.69;;;19.66;91.11
6393;BME280;3229;42.674;23.282;2023-07-08T02:33:22;94897.28;;;19.67;90.84
6393;BME280;3229;42.674;23.282;2023-07-08T02:35:58;94905.69;;;19.69;91.02
6393;BME280;3229;42.674;23.282;2023-07-08T02:38:25;94906.84;;;19.67;90.80
6393;BME280;3229;42.674;23.282;2023-07-08T02:40:52;94907.06;;;19.65;91.07
6393;BME280;3229;42.674;23.282;2023-07-08T02:43:19;94914.03;;;19.65;90.95
6393;BME280;3229;42.674;23.282;2023-07-08T02:45:49;94918.78;;;19.61;91.01
6393;BME280;3229;42.674;23.282;2023-07-08T02:48:17;94922.31;;;19.60;90.87
6393;BME280;3229;42.674;23.282;2023-07-08T02:50:44;94920.72;;;19.59;90.86
6393;BME280;3229;42.674;23.282;2023-07-08T02:53:11;94933.09;;;19.57;91.28
6393;BME280;3229;42.674;23.282;2023-07-08T02:55:38;94924.69;;;19.55;91.20
6393;BME280;3229;42.674;23.282;2023-07-08T02:58:05;94930.09;;;19.60;90.83
6393;BME280;3229;42.674;23.282;2023-07-08T03:00:31;94928.97;;;19.63;90.69
6393;BME280;3229;42.674;23.282;2023-07-08T03:02:59;94937.38;;;19.65;90.55
6393;BME280;3229;42.674;23.282;2023-07-08T03:05:27;94928.41;;;19.67;90.22
6393;BME280;3229;42.674;23.282;2023-07-08T03:07:54;94931.81;;;19.68;90.58
6393;BME280;3229;42.674;23.282;2023-07-08T03:10:21;94934.03;;;19.71;90.31
6393;BME280;3229;42.674;23.282;2023-07-08T03:12:47;94933.22;;;19.70;90.38
6393;BME280;3229;42.674;23.282;2023-07-08T03:15:14;94930.28;;;19.73;90.34
6393;BME280;3229;42.674;23.282;2023-07-08T03:17:41;94929.06;;;19.76;90.25
6393;BME280;3229;42.674;23.282;2023-07-08T03:20:09;94927.72;;;19.80;90.07
6393;BME280;3229;42.674;23.282;2023-07-08T03:22:38;94931.09;;;19.80;89.93
6393;BME280;3229;42.674;23.282;2023-07-08T03:25:05;94925.13;;;19.80;90.00
6393;BME280;3229;42.674;23.282;2023-07-08T03:27:32;94916.75;;;19.85;89.94
6393;BME280;3229;42.674;23.282;2023-07-08T03:29:59;94915.81;;;19.92;89.29
6393;BME280;3229;42.674;23.282;2023-07-08T03:32:26;94915.25;;;19.97;89.26
6393;BME280;3229;42.674;23.282;2023-07-08T03:34:52;94914.25;;;19.98;88.45
6393;BME280;3229;42.674;23.282;2023-07-08T03:37:19;94915.47;;;20.02;88.40
6393;BME280;3229;42.674;23.282;2023-07-08T03:39:47;94914.88;;;20.00;88.37
6393;BME280;3229;42.674;23.282;2023-07-08T03:42:14;94918.13;;;20.09;88.47
6393;BME280;3229;42.674;23.282;2023-07-08T03:44:41;94912.34;;;20.13;87.87
6393;BME280;3229;42.674;23.282;2023-07-08T03:47:08;94907.53;;;20.10;88.32
6393;BME280;3229;42.674;23.282;2023-07-08T03:49:35;94906.75;;;20.10;88.33
6393;BME280;3229;42.674;23.282;2023-07-08T03:52:02;94892.53;;;20.05;88.38
6393;BME280;3229;42.674;23.282;2023-07-08T03:54:29;94907.16;;;20.13;88.16
6393;BME280;3229;42.674;23.282;2023-07-08T03:56:57;94902.63;;;20.22;87.92
6393;BME280;3229;42.674;23.282;2023-07-08T03:59:23;94902.47;;;20.30;87.79
6393;BME280;3229;42.674;23.282;2023-07-08T04:01:50;94897.47;;;20.35;87.80
6393;BME280;3229;42.674;23.282;2023-07-08T04:04:17;94896.09;;;20.39;87.81
6393;BME280;3229;42.674;23.282;2023-07-08T04:06:44;94895.72;;;20.42;87.42
6393;BME280;3229;42.674;23.282;2023-07-08T04:09:11;94893.59;;;20.52;87.13
6393;BME280;3229;42.674;23.282;2023-07-08T04:11:38;94905.22;;;20.63;86.33
6393;BME280;3229;42.674;23.282;2023-07-08T04:14:07;94905.63;;;20.67;86.33
6393;BME280;3229;42.674;23.282;2023-07-08T04:16:42;94916.28;;;20.78;86.04
6393;BME280;3229;42.674;23.282;2023-07-08T04:19:11;94916.53;;;20.90;85.23
6393;BME280;3229;42.674;23.282;2023-07-08T04:21:40;94917.53;;;21.02;85.06
6393;BME280;3229;42.674;23.282;2023-07-08T04:24:09;94922.78;;;21.16;84.16
6393;BME280;3229;42.674;23.282;2023-07-08T04:26:36;94919.59;;;21.20;84.33
6393;BME280;3229;42.674;23.282;2023-07-08T04:29:07;94912.81;;;21.33;83.77
6393;BME280;3229;42.674;23.282;2023-07-08T04:31:36;94922.22;;;21.40;83.55
6393;BME280;3229;42.674;23.282;2023-07-08T04:34:03;94911.03;;;21.53;83.29
6393;BME280;3229;42.674;23.282;2023-07-08T04:36:31;94927.06;;;21.63;81.27
6393;BME280;3229;42.674;23.282;2023-07-08T04:38:59;94923.44;;;21.71;80.84
6393;BME280;3229;42.674;23.282;2023-07-08T04:41:25;94914.22;;;21.62;80.98
6393;BME280;3229;42.674;23.282;2023-07-08T04:43:53;94931.44;;;21.76;80.51
6393;BME280;3229;42.674;23.282;2023-07-08T04:46:31;94923.25;;;21.72;80.91
6393;BME280;3229;42.674;23.282;2023-07-08T04:49:00;94916.25;;;21.73;80.72
6393;BME280;3229;42.674;23.282;2023-07-08T04:51:28;94915.81;;;21.83;79.64
6393;BME280;3229;42.674;23.282;2023-07-08T04:53:55;94920.22;;;21.89;79.85
6393;BME280;3229;42.674;23.282;2023-07-08T04:56:21;94923.44;;;21.91;79.54
6393;BME280;3229;42.674;23.282;2023-07-08T04:58:49;94930.03;;;21.93;79.39
6393;BME280;3229;42.674;23.282;2023-07-08T05:01:15;94931.25;;;21.91;79.06
6393;BME280;3229;42.674;23.282;2023-07-08T05:03:43;94940.47;;;21.87;79.07
6393;BME280;3229;42.674;23.282;2023-07-08T05:06:10;94931.06;;;21.86;78.87
6393;BME280;3229;42.674;23.282;2023-07-08T05:08:37;94951.09;;;21.98;78.26
6393;BME280;3229;42.674;23.282;2023-07-08T05:11:04;94947.25;;;22.01;78.95
6393;BME280;3229;42.674;23.282;2023-07-08T05:13:30;94944.25;;;22.11;79.24
6393;BME280;3229;42.674;23.282;2023-07-08T05:15:58;94947.63;;;22.38;76.25
6393;BME280;3229;42.674;23.282;2023-07-08T05:18:25;94946.19;;;22.55;77.08
6393;BME280;3229;42.674;23.282;2023-07-08T05:20:53;94943.88;;;22.85;76.18
6393;BME280;3229;42.674;23.282;2023-07-08T05:23:21;94942.66;;;23.26;74.27
6393;BME280;3229;42.674;23.282;2023-07-08T05:25:49;94955.06;;;23.69;71.60
6393;BME280;3229;42.674;23.282;2023-07-08T05:28:16;94953.47;;;23.93;70.11
6393;BME280;3229;42.674;23.282;2023-07-08T05:30:43;94960.06;;;24.20;69.84
6393;BME280;3229;42.674;23.282;2023-07-08T05:33:10;94966.44;;;24.49;68.98
6393;BME280;3229;42.674;23.282;2023-07-08T05:35:37;94964.69;;;24.80;67.50
6393;BME280;3229;42.674;23.282;2023-07-08T05:38:05;94964.31;;;25.13;66.98
6393;BME280;3229;42.674;23.282;2023-07-08T05:40:35;94965.78;;;25.39;65.12
6393;BME280;3229;42.674;23.282;2023-07-08T05:43:02;94944.34;;;25.31;64.90
6393;BME280;3229;42.674;23.282;2023-07-08T05:45:29;94977.22;;;25.68;64.79
6393;BME280;3229;42.674;23.282;2023-07-08T05:47:56;94973.44;;;25.64;64.18
6393;BME280;3229;42.674;23.282;2023-07-08T05:50:23;94977.06;;;25.82;63.48
6393;BME280;3229;42.674;23.282;2023-07-08T05:52:50;94985.63;;;25.89;62.68
6393;BME280;3229;42.674;23.282;2023-07-08T05:55:18;94984.38;;;25.91;62.79
6393;BME280;3229;42.674;23.282;2023-07-08T05:57:45;94983.47;;;25.97;61.75
6393;BME280;3229;42.674;23.282;2023-07-08T06:00:12;94984.25;;;25.98;62.57
6393;BME280;3229;42.674;23.282;2023-07-08T06:02:39;94982.66;;;25.85;62.46
6393;BME280;3229;42.674;23.282;2023-07-08T06:05:07;94976.56;;;25.73;62.83
6393;BME280;3229;42.674;23.282;2023-07-08T06:07:34;94991.03;;;25.75;62.54
6393;BME280;3229;42.674;23.282;2023-07-08T06:10:03;94994.88;;;25.61;63.38
6393;BME280;3229;42.674;23.282;2023-07-08T06:12:33;94995.28;;;25.46;62.95
6393;BME280;3229;42.674;23.282;2023-07-08T06:15:01;94994.91;;;25.13;64.19
6393;BME280;3229;42.674;23.282;2023-07-08T06:17:28;94990.94;;;24.92;65.34
6393;BME280;3229;42.674;23.282;2023-07-08T06:19:55;94992.44;;;24.81;66.14
6393;BME280;3229;42.674;23.282;2023-07-08T06:22:22;94994.25;;;24.81;66.01
6393;BME280;3229;42.674;23.282;2023-07-08T06:24:49;94995.66;;;24.83;65.51
6393;BME280;3229;42.674;23.282;2023-07-08T06:27:15;94991.91;;;24.91;65.95
6393;BME280;3229;42.674;23.282;2023-07-08T06:29:44;94998.19;;;24.90;65.05
6393;BME280;3229;42.674;23.282;2023-07-08T06:32:11;94997.03;;;24.86;64.61
6393;BME280;3229;42.674;23.282;2023-07-08T06:34:38;94987.94;;;24.88;63.59
6393;BME280;3229;42.674;23.282;2023-07-08T06:37:05;94994.59;;;25.02;62.75
6393;BME280;3229;42.674;23.282;2023-07-08T06:39:32;94992.28;;;24.94;64.88
6393;BME280;3229;42.674;23.282;2023-07-08T06:41:59;95000.59;;;25.10;64.23
6393;BME280;3229;42.674;23.282;2023-07-08T06:44:25;94988.81;;;25.19;63.82
6393;BME280;3229;42.674;23.282;2023-07-08T06:46:54;94981.88;;;25.24;61.78
6393;BME280;3229;42.674;23.282;2023-07-08T06:49:20;94990.34;;;25.38;60.05
6393;BME280;3229;42.674;23.282;2023-07-08T06:51:47;94985.28;;;25.55;59.73
6393;BME280;3229;42.674;23.282;2023-07-08T06:54:14;94982.78;;;25.48;58.67
6393;BME280;3229;42.674;23.282;2023-07-08T06:56:41;94993.13;;;25.43;59.72
6393;BME280;3229;42.674;23.282;2023-07-08T06:59:08;94993.81;;;25.50;60.13
6393;BME280;3229;42.674;23.282;2023-07-08T07:01:35;94999.56;;;25.71;59.94
6393;BME280;3229;42.674;23.282;2023-07-08T07:04:04;94997.25;;;25.93;60.33
6393;BME280;3229;42.674;23.282;2023-07-08T07:06:31;94993.97;;;26.33;58.77
6393;BME280;3229;42.674;23.282;2023-07-08T07:08:58;94997.16;;;26.70;56.10
6393;BME280;3229;42.674;23.282;2023-07-08T07:11:24;95003.31;;;26.75;55.82
6393;BME280;3229;42.674;23.282;2023-07-08T07:13:51;94990.09;;;26.70;55.93
6393;BME280;3229;42.674;23.282;2023-07-08T07:16:18;95004.59;;;26.73;56.88
6393;BME280;3229;42.674;23.282;2023-07-08T07:18:45;95003.91;;;26.66;56.40
6393;BME280;3229;42.674;23.282;2023-07-08T07:21:13;95022.28;;;26.66;54.63
6393;BME280;3229;42.674;23.282;2023-07-08T07:23:40;95004.50;;;26.44;56.42
6393;BME280;3229;42.674;23.282;2023-07-08T07:26:07;95029.78;;;26.39;56.52
6393;BME280;3229;42.674;23.282;2023-07-08T07:28:34;95040.94;;;26.22;56.85
6393;BME280;3229;42.674;23.282;2023-07-08T07:31:01;95036.25;;;26.01;57.95
6393;BME280;3229;42.674;23.282;2023-07-08T07:33:28;95040.22;;;25.92;58.64
6393;BME280;3229;42.674;23.282;2023-07-08T07:35:55;95040.88;;;25.87;58.73
6393;BME280;3229;42.674;23.282;2023-07-08T07:38:23;95043.44;;;25.75;58.79
6393;BME280;3229;42.674;23.282;2023-07-08T07:40:54;95034.53;;;25.65;58.84
6393;BME280;3229;42.674;23.282;2023-07-08T07:43:21;95052.75;;;25.71;59.01
6393;BME280;3229;42.674;23.282;2023-07-08T07:45:50;95044.66;;;25.61;58.91
6393;BME280;3229;42.674;23.282;2023-07-08T07:48:17;95056.34;;;25.59;59.81
6393;BME280;3229;42.674;23.282;2023-07-08T07:50:45;95041.13;;;25.67;59.29
6393;BME280;3229;42.674;23.282;2023-07-08T07:53:12;95033.94;;;25.63;59.27
6393;BME280;3229;42.674;23.282;2023-07-08T07:55:40;95042.91;;;25.55;59.77
6393;BME280;3229;42.674;23.282;2023-07-08T07:58:07;95044.72;;;25.55;59.61
6393;BME280;3229;42.674;23.282;2023-07-08T08:00:36;95037.00;;;25.60;59.93
6393;BME280;3229;42.674;23.282;2023-07-08T08:03:03;95040.81;;;25.75;59.20
6393;BME280;3229;42.674;23.282;2023-07-08T08:05:30;95030.88;;;25.96;58.28
6393;BME280;3229;42.674;23.282;2023-07-08T08:07:57;95036.59;;;26.05;56.62
6393;BME280;3229;42.674;23.282;2023-07-08T08:10:23;95028.47;;;25.94;57.49
6393;BME280;3229;42.674;23.282;2023-07-08T08:12:51;95033.72;;;26.06;57.09
6393;BME280;3229;42.674;23.282;2023-07-08T08:15:19;95033.19;;;26.04;57.30
6393;BME280;3229;42.674;23.282;2023-07-08T08:17:46;95031.94;;;26.18;58.05
6393;BME280;3229;42.674;23.282;2023-07-08T08:20:14;95030.94;;;26.43;56.99
6393;BME280;3229;42.674;23.282;2023-07-08T08:22:41;95029.66;;;26.81;56.82
6393;BME280;3229;42.674;23.282;2023-07-08T08:25:08;95032.03;;;27.06;55.98
6393;BME280;3229;42.674;23.282;2023-07-08T08:27:35;95027.00;;;27.16;54.96
6393;BME280;3229;42.674;23.282;2023-07-08T08:30:05;95034.03;;;27.27;55.33
6393;BME280;3229;42.674;23.282;2023-07-08T08:32:33;95040.88;;;27.28;55.26
6393;BME280;3229;42.674;23.282;2023-07-08T08:34:59;95032.78;;;27.30;54.16
6393;BME280;3229;42.674;23.282;2023-07-08T08:37:26;95028.53;;;27.29;54.94
6393;BME280;3229;42.674;23.282;2023-07-08T08:39:53;95028.38;;;27.47;53.34
6393;BME280;3229;42.674;23.282;2023-07-08T08:42:24;95022.47;;;27.68;53.50
6393;BME280;3229;42.674;23.282;2023-07-08T08:44:52;95026.75;;;27.86;53.54
6393;BME280;3229;42.674;23.282;2023-07-08T08:47:27;95018.53;;;27.99;53.90
6393;BME280;3229;42.674;23.282;2023-07-08T08:50:00;95017.97;;;28.14;52.27
6393;BME280;3229;42.674;23.282;2023-07-08T08:52:28;95022.78;;;28.17;52.46
6393;BME280;3229;42.674;23.282;2023-07-08T08:54:55;95021.31;;;28.26;52.76
6393;BME280;3229;42.674;23.282;2023-07-08T08:57:32;95023.72;;;28.45;50.72
6393;BME280;3229;42.674;23.282;2023-07-08T09:00:03;95039.75;;;28.43;50.38
6393;BME280;3229;42.674;23.282;2023-07-08T09:02:34;95027.19;;;28.45;50.57
6393;BME280;3229;42.674;23.282;2023-07-08T09:05:06;95029.88;;;28.50;51.23
6393;BME280;3229;42.674;23.282;2023-07-08T09:07:37;95003.19;;;28.42;51.33
6393;BME280;3229;42.674;23.282;2023-07-08T09:10:13;95025.16;;;28.53;50.48
6393;BME280;3229;42.674;23.282;2023-07-08T09:12:42;95024.56;;;28.45;51.64
6393;BME280;3229;42.674;23.282;2023-07-08T09:15:14;95025.53;;;28.61;50.23
6393;BME280;3229;42.674;23.282;2023-07-08T09:17:42;95018.50;;;28.67;50.29
6393;BME280;3229;42.674;23.282;2023-07-08T09:20:17;95016.91;;;28.66;49.43
6393;BME280;3229;42.674;23.282;2023-07-08T09:22:52;95019.22;;;28.62;50.63
6393;BME280;3229;42.674;23.282;2023-07-08T09:25:25;95015.25;;;28.60;50.63
6393;BME280;3229;42.674;23.282;2023-07-08T09:27:55;95015.19;;;28.55;50.49
6393;BME280;3229;42.674;23.282;2023-07-08T09:30:23;95007.78;;;28.52;49.76
6393;BME280;3229;42.674;23.282;2023-07-08T09:32:51;95004.50;;;28.44;50.25
6393;BME280;3229;42.674;23.282;2023-07-08T09:35:21;94999.25;;;28.44;51.02
6393;BME280;3229;42.674;23.282;2023-07-08T09:37:49;94996.53;;;28.56;51.07
6393;BME280;3229;42.674;23.282;2023-07-08T09:40:18;94999.53;;;28.65;49.12
6393;BME280;3229;42.674;23.282;2023-07-08T09:42:49;94994.22;;;28.60;50.54
6393;BME280;3229;42.674;23.282;2023-07-08T09:45:19;94987.09;;;28.60;50.42
6393;BME280;3229;42.674;23.282;2023-07-08T09:47:47;94986.53;;;28.58;50.75
6393;BME280;3229;42.674;23.282;2023-07-08T09:50:22;94981.28;;;28.58;49.68
6393;BME280;3229;42.674;23.282;2023-07-08T09:52:51;94975.53;;;28.61;50.09
6393;BME280;3229;42.674;23.282;2023-07-08T09:55:18;94982.63;;;28.61;49.54
6393;BME280;3229;42.674;23.282;2023-07-08T09:57:46;94975.78;;;28.60;50.26
6393;BME280;3229;42.674;23.282;2023-07-08T10:00:16;94974.69;;;28.56;48.82
6393;BME280;3229;42.674;23.282;2023-07-08T10:02:45;94985.22;;;28.39;49.08
6393;BME280;3229;42.674;23.282;2023-07-08T10:05:20;94975.66;;;28.33;49.54
6393;BME280;3229;42.674;23.282;2023-07-08T10:07:48;94983.78;;;28.31;50.45
6393;BME280;3229;42.674;23.282;2023-07-08T10:10:22;94979.97;;;28.22;49.66
6393;BME280;3229;42.674;23.282;2023-07-08T10:12:57;94976.28;;;28.06;50.39
6393;BME280;3229;42.674;23.282;2023-07-08T10:15:29;94966.50;;;28.01;50.59
6393;BME280;3229;42.674;23.282;2023-07-08T10:17:58;94981.34;;;28.08;50.43
6393;BME280;3229;42.674;23.282;2023-07-08T10:20:29;94967.16;;;27.92;50.06
6393;BME280;3229;42.674;23.282;2023-07-08T10:23:14;94964.84;;;27.79;51.24
6393;BME280;3229;42.674;23.282;2023-07-08T10:25:53;94964.91;;;27.84;51.05
6393;BME280;3229;42.674;23.282;2023-07-08T10:28:31;94964.84;;;27.95;51.00
6393;BME280;3229;42.674;23.282;2023-07-08T10:31:08;94954.16;;;28.02;51.17
6393;BME280;3229;42.674;23.282;2023-07-08T10:33:51;94955.09;;;28.13;51.91
6393;BME280;3229;42.674;23.282;2023-07-08T10:36:40;94955.50;;;28.21;50.61
6393;BME280;3229;42.674;23.282;2023-07-08T10:39:30;94947.03;;;28.19;49.79
6393;BME280;3229;42.674;23.282;2023-07-08T10:42:08;94952.06;;;28.21;49.40
6393;BME280;3229;42.674;23.282;2023-07-08T10:44:45;94946.97;;;28.14;48.62
6393;BME280;3229;42.674;23.282;2023-07-08T10:47:38;94951.69;;;28.12;49.48
6393;BME280;3229;42.674;23.282;2023-07-08T10:50:22;94953.69;;;28.05;50.02
6393;BME280;3229;42.674;23.282;2023-07-08T10:53:06;94933.75;;;27.92;49.94
6393;BME280;3229;42.674;23.282;2023-07-08T10:55:43;94939.47;;;28.06;49.67
6393;BME280;3229;42.674;23.282;2023-07-08T10:58:51;94928.34;;;27.99;50.56
6393;BME280;3229;42.674;23.282;2023-07-08T11:01:27;94931.44;;;28.13;50.14
6393;BME280;3229;42.674;23.282;2023-07-08T11:04:16;94933.81;;;28.14;50.49
6393;BME280;3229;42.674;23.282;2023-07-08T11:06:50;94934.59;;;28.15;50.60
6393;BME280;3229;42.674;23.282;2023-07-08T11:09:26;94931.88;;;28.26;49.65
6393;BME280;3229;42.674;23.282;2023-07-08T11:11:58;94942.88;;;28.23;49.42
6393;BME280;3229;42.674;23.282;2023-07-08T11:14:30;94927.34;;;28.22;49.20
6393;BME280;3229;42.674;23.282;2023-07-08T11:17:09;94918.66;;;28.21;49.12
6393;BME280;3229;42.674;23.282;2023-07-08T11:19:46;94914.47;;;28.20;49.50
6393;BME280;3229;42.674;23.282;2023-07-08T11:22:15;94922.22;;;28.32;49.19
6393;BME280;3229;42.674;23.282;2023-07-08T11:24:46;94911.56;;;28.39;48.22
6393;BME280;3229;42.674;23.282;2023-07-08T11:27:15;94908.38;;;28.37;48.06
6393;BME280;3229;42.674;23.282;2023-07-08T11:29:52;94911.94;;;28.31;47.34
6393;BME280;3229;42.674;23.282;2023-07-08T11:32:22;94885.94;;;28.12;48.52
6393;BME280;3229;42.674;23.282;2023-07-08T11:34:52;94912.34;;;28.39;48.60
6393;BME280;3229;42.674;23.282;2023-07-08T11:37:20;94917.50;;;28.51;48.40
6393;BME280;3229;42.674;23.282;2023-07-08T11:39:54;94911.53;;;28.56;47.33
6393;BME280;3229;42.674;23.282;2023-07-08T11:42:32;94910.47;;;28.57;48.46
6393;BME280;3229;42.674;23.282;2023-07-08T11:45:07;94919.66;;;28.54;48.06
6393;BME280;3229;42.674;23.282;2023-07-08T11:47:40;94916.53;;;28.57;48.21
6393;BME280;3229;42.674;23.282;2023-07-08T11:50:16;94914.41;;;28.54;47.08
6393;BME280;3229;42.674;23.282;2023-07-08T11:52:51;94917.53;;;28.34;47.83
6393;BME280;3229;42.674;23.282;2023-07-08T11:55:25;94918.28;;;28.13;47.89
6393;BME280;3229;42.674;23.282;2023-07-08T11:57:54;94910.34;;;27.91;49.01
6393;BME280;3229;42.674;23.282;2023-07-08T12:00:24;94888.66;;;27.67;49.96
6393;BME280;3229;42.674;23.282;2023-07-08T12:02:55;94911.06;;;27.86;49.27
6393;BME280;3229;42.674;23.282;2023-07-08T12:05:32;94919.16;;;28.01;48.46
6393;BME280;3229;42.674;23.282;2023-07-08T12:08:00;94920.19;;;28.17;48.38
6393;BME280;3229;42.674;23.282;2023-07-08T12:10:33;94915.63;;;28.46;47.19
6393;BME280;3229;42.674;23.282;2023-07-08T12:13:01;94903.94;;;28.59;45.68
6393;BME280;3229;42.674;23.282;2023-07-08T12:15:30;94919.53;;;28.66;46.14
6393;BME280;3229;42.674;23.282;2023-07-08T12:18:01;94917.94;;;28.65;47.34
6393;BME280;3229;42.674;23.282;2023-07-08T12:20:32;94924.72;;;28.61;46.58
6393;BME280;3229;42.674;23.282;2023-07-08T12:23:00;94918.84;;;28.54;46.94
6393;BME280;3229;42.674;23.282;2023-07-08T12:25:33;94906.78;;;28.36;46.57
6393;BME280;3229;42.674;23.282;2023-07-08T12:28:00;94924.41;;;28.35;47.43
6393;BME280;3229;42.674;23.282;2023-07-08T12:30:29;94920.41;;;28.33;47.52
6393;BME280;3229;42.674;23.282;2023-07-08T12:32:57;94913.94;;;28.23;48.32
6393;BME280;3229;42.674;23.282;2023-07-08T12:35:27;94914.78;;;28.24;47.92
6393;BME280;3229;42.674;23.282;2023-07-08T12:37:57;94916.16;;;28.32;48.38
6393;BME280;3229;42.674;23.282;2023-07-08T12:40:25;94881.72;;;28.11;47.53
6393;BME280;3229;42.674;23.282;2023-07-08T12:42:54;94909.00;;;28.27;47.30
6393;BME280;3229;42.674;23.282;2023-07-08T12:45:22;94912.16;;;28.07;47.69
6393;BME280;3229;42.674;23.282;2023-07-08T12:47:51;94899.84;;;27.91;48.87
6393;BME280;3229;42.674;23.282;2023-07-08T12:50:18;94909.50;;;27.85;49.33
6393;BME280;3229;42.674;23.282;2023-07-08T12:52:46;94910.59;;;27.72;49.41
6393;BME280;3229;42.674;23.282;2023-07-08T12:55:14;94881.00;;;27.48;49.25
6393;BME280;3229;42.674;23.282;2023-07-08T12:57:44;94899.97;;;27.50;50.18
6393;BME280;3229;42.674;23.282;2023-07-08T13:00:18;94902.28;;;27.47;51.19
6393;BME280;3229;42.674;23.282;2023-07-08T13:02:50;94900.44;;;27.47;51.17
6393;BME280;3229;42.674;23.282;2023-07-08T13:05:22;94904.66;;;27.48;51.04
6393;BME280;3229;42.674;23.282;2023-07-08T13:07:50;94910.25;;;27.52;51.09
6393;BME280;3229;42.674;23.282;2023-07-08T13:10:19;94898.31;;;27.61;50.71
6393;BME280;3229;42.674;23.282;2023-07-08T13:12:48;94904.81;;;27.59;50.42
6393;BME280;3229;42.674;23.282;2023-07-08T13:15:21;94891.28;;;27.50;50.55
6393;BME280;3229;42.674;23.282;2023-07-08T13:17:49;94906.31;;;27.55;50.76
6393;BME280;3229;42.674;23.282;2023-07-08T13:20:17;94894.16;;;27.48;50.40
6393;BME280;3229;42.674;23.282;2023-07-08T13:22:55;94909.06;;;27.60;49.42